Time;durP1;ratioP1;P1;durP2;ratioP2;P2;SDS_P1;SDS_P2;PMS_P1;PMS_P2;Temp;Humidity;BMP_temperature;BMP_pressure;BME280_temperature;BME280_humidity;BME280_pressure;Samples;Min_cycle;Max_cycle;Signal;HPM_P1;HPM_P2
2021/11/15 00:00:13;;;;;;;62.67;35.33;;;;;;;;;;5052503;28;20508;-57
2021/11/15 00:02:41;;;;;;;66.13;36.60;;;8.30;1.00;;;;;;5052108;28;20466;-57
2021/11/15 00:05:08;;;;;;;72.57;38.37;;;8.60;1.00;;;;;;5052511;28;20641;-57
2021/11/15 00:07:33;;;;;;;63.60;35.00;;;8.40;1.00;;;;;;5052022;28;20442;-57
2021/11/15 00:09:59;;;;;;;74.03;37.53;;;8.70;1.00;;;;;;5051152;28;20431;-57
2021/11/15 00:12:25;;;;;;;72.20;36.50;;;;;;;;;;5052270;28;20192;-58
2021/11/15 00:14:51;;;;;;;75.03;39.67;;;;;;;;;;5051934;28;20243;-58
2021/11/15 00:20:52;;;;;;;66.57;37.70;;;8.60;1.00;;;;;;5029631;28;20479;-58
2021/11/15 00:23:19;;;;;;;64.37;35.87;;;8.60;1.00;;;;;;5030478;28;20988;-57
2021/11/15 00:25:44;;;;;;;64.03;35.30;;;8.90;1.00;;;;;;5051771;28;20191;-58
2021/11/15 00:28:10;;;;;;;65.20;37.03;;;;;;;;;;5052021;28;20503;-58
2021/11/15 00:30:36;;;;;;;65.70;36.70;;;8.90;1.00;;;;;;5051659;28;20176;-57
2021/11/15 00:33:01;;;;;;;61.77;36.37;;;8.90;1.00;;;;;;5051905;28;20508;-57
2021/11/15 00:35:27;;;;;;;70.13;38.90;;;;;;;;;;5060361;28;20637;-55
2021/11/15 00:37:53;;;;;;;69.13;36.83;;;;;;;;;;5071466;28;20553;-58
2021/11/15 00:40:19;;;;;;;72.73;38.00;;;;;;;;;;5071693;28;20450;-57
2021/11/15 00:42:45;;;;;;;70.20;37.10;;;;;;;;;;5071261;28;20527;-57
2021/11/15 00:45:14;;;;;;;70.73;37.07;;;8.80;1.00;;;;;;5071676;28;20516;-58
2021/11/15 00:47:40;;;;;;;65.93;36.90;;;8.70;1.00;;;;;;5071157;28;20462;-57
2021/11/15 00:50:08;;;;;;;68.13;38.47;;;8.70;1.00;;;;;;5071687;28;20441;-57
2021/11/15 00:52:34;;;;;;;72.30;38.07;;;;;;;;;;5071562;28;20215;-57
2021/11/15 00:54:59;;;;;;;70.90;36.67;;;8.50;1.00;;;;;;5071290;28;20488;-57
2021/11/15 00:57:25;;;;;;;61.93;34.90;;;;;;;;;;5071524;28;20405;-58
2021/11/15 00:59:51;;;;;;;70.33;38.63;;;;;;;;;;5071212;28;20215;-57
2021/11/15 01:02:17;;;;;;;73.23;36.20;;;;;;;;;;5070949;28;20436;-57
2021/11/15 01:04:43;;;;;;;73.77;37.00;;;;;;;;;;5070642;28;20459;-58
2021/11/15 01:07:09;;;;;;;69.87;36.20;;;;;;;;;;5070978;28;20474;-57
2021/11/15 01:09:35;;;;;;;67.93;35.50;;;;;;;;;;5071189;28;20443;-57
2021/11/15 01:12:01;;;;;;;69.37;36.43;;;;;;;;;;5071000;28;20931;-57
2021/11/15 01:14:27;;;;;;;71.27;38.67;;;;;;;;;;5069918;28;20468;-58
2021/11/15 01:16:53;;;;;;;66.67;35.30;;;;;;;;;;5071162;28;20753;-58
2021/11/15 01:19:19;;;;;;;70.93;37.93;;;;;;;;;;5070980;28;20538;-56
2021/11/15 01:21:45;;;;;;;67.53;36.73;;;7.90;1.00;;;;;;5070748;28;20856;-57
2021/11/15 01:24:11;;;;;;;75.43;36.17;;;7.90;1.00;;;;;;5070810;28;20442;-57
2021/11/15 01:26:38;;;;;;;75.10;36.97;;;8.20;1.00;;;;;;5071029;28;20430;-57
2021/11/15 01:29:04;;;;;;;75.73;38.00;;;8.00;1.00;;;;;;5070758;28;20434;-58
2021/11/15 01:31:30;;;;;;;67.33;37.77;;;8.20;1.00;;;;;;5070851;28;20435;-58
2021/11/15 01:33:56;;;;;;;75.67;37.30;;;;;;;;;;5070724;28;20430;-58
2021/11/15 01:36:22;;;;;;;74.20;39.70;;;8.40;1.00;;;;;;5070691;28;20188;-57
2021/11/15 01:38:47;;;;;;;69.53;35.93;;;8.30;1.00;;;;;;5070621;28;20413;-57
2021/11/15 01:41:13;;;;;;;68.83;37.07;;;8.00;1.00;;;;;;5070649;28;20229;-58
2021/11/15 01:43:39;;;;;;;64.27;35.33;;;;;;;;;;5070711;28;20238;-58
2021/11/15 01:46:05;;;;;;;74.50;37.53;;;;;;;;;;5070554;28;20310;-57
2021/11/15 01:48:31;;;;;;;71.90;38.10;;;;;;;;;;5070908;28;20520;-58
2021/11/15 01:50:57;;;;;;;72.97;39.37;;;;;;;;;;5070873;28;20469;-58
2021/11/15 01:53:23;;;;;;;77.07;38.13;;;8.40;1.00;;;;;;5070704;28;20998;-57
2021/11/15 01:55:49;;;;;;;79.87;38.30;;;;;;;;;;5070465;28;20829;-61
2021/11/15 01:58:16;;;;;;;68.97;36.30;;;8.40;1.00;;;;;;5070793;28;20179;-57
2021/11/15 02:00:48;;;;;;;76.93;38.00;;;8.20;1.00;;;;;;5069158;28;20466;-57
2021/11/15 02:03:15;;;;;;;69.20;35.90;;;8.10;1.00;;;;;;5070245;28;20820;-59
2021/11/15 02:05:41;;;;;;;79.50;39.70;;;;;;;;;;5070481;28;20919;-57
2021/11/15 02:08:07;;;;;;;69.77;37.70;;;8.40;1.00;;;;;;5070352;28;20435;-59
2021/11/15 02:10:33;;;;;;;75.10;37.90;;;;;;;;;;5070532;28;20434;-57
2021/11/15 02:12:59;;;;;;;72.33;34.37;;;8.30;1.00;;;;;;5070469;28;20973;-56
2021/11/15 02:15:25;;;;;;;70.17;35.37;;;;;;;;;;5073097;28;20446;-57
2021/11/15 02:17:51;;;;;;;68.63;34.37;;;8.10;1.00;;;;;;5074039;28;20183;-58
2021/11/15 02:20:40;;;;;;;67.93;34.03;;;8.00;1.00;;;;;;5074384;28;20445;-58
2021/11/15 02:23:06;;;;;;;71.77;35.27;;;8.10;1.00;;;;;;5074524;28;20465;-57
2021/11/15 02:25:31;;;;;;;74.20;36.07;;;7.90;1.00;;;;;;5074497;28;20434;-57
2021/11/15 02:27:57;;;;;;;68.17;33.87;;;;;;;;;;5074089;28;20188;-58
2021/11/15 02:30:26;;;;;;;64.60;36.00;;;8.30;1.00;;;;;;5074096;28;20175;-57
2021/11/15 02:32:52;;;;;;;71.00;36.40;;;8.20;1.00;;;;;;5073919;28;20473;-56
2021/11/15 02:35:19;;;;;;;70.30;35.60;;;8.30;1.00;;;;;;5074170;28;20458;-57
2021/11/15 02:37:46;;;;;;;58.57;34.03;;;8.40;1.00;;;;;;5073830;28;20433;-57
2021/11/15 02:40:14;;;;;;;65.30;36.40;;;8.10;1.00;;;;;;5074043;28;20445;-57
2021/11/15 02:42:40;;;;;;;64.50;33.17;;;8.30;1.00;;;;;;5073958;28;20800;-59
2021/11/15 02:45:07;;;;;;;61.40;32.80;;;;;;;;;;5073669;28;20484;-58
2021/11/15 02:47:33;;;;;;;62.27;33.53;;;;;;;;;;5073890;28;20569;-57
2021/11/15 02:49:59;;;;;;;67.47;35.70;;;8.50;1.00;;;;;;5073719;28;20844;-57
2021/11/15 02:52:25;;;;;;;66.10;36.53;;;;;;;;;;5073899;28;20438;-57
2021/11/15 02:54:51;;;;;;;67.50;36.50;;;;;;;;;;5073642;28;20442;-57
2021/11/15 02:57:19;;;;;;;68.03;35.80;;;8.60;1.00;;;;;;5073667;28;20433;-57
2021/11/15 02:59:46;;;;;;;66.40;35.43;;;8.60;1.00;;;;;;5073478;28;20462;-57
2021/11/15 03:02:12;;;;;;;58.80;33.37;;;;;;;;;;5073285;28;20607;-57
2021/11/15 03:04:38;;;;;;;61.33;33.70;;;8.70;1.00;;;;;;5073786;28;20401;-58
2021/11/15 03:07:04;;;;;;;63.07;34.40;;;8.40;1.00;;;;;;5073238;28;20409;-57
2021/11/15 03:09:30;;;;;;;66.33;34.20;;;8.40;1.00;;;;;;5073757;28;20187;-57
2021/11/15 03:11:56;;;;;;;56.43;33.50;;;;;;;;;;5073214;28;21014;-57
2021/11/15 03:14:21;;;;;;;59.30;34.73;;;8.70;1.00;;;;;;5073249;28;20211;-58
2021/11/15 03:16:47;;;;;;;56.13;30.03;;;;;;;;;;5073645;28;20520;-57
2021/11/15 03:19:13;;;;;;;48.73;29.20;;;;;;;;;;5073312;28;20187;-56
2021/11/15 03:21:39;;;;;;;51.73;31.63;;;;;;;;;;5073266;28;20469;-58
2021/11/15 03:24:05;;;;;;;48.10;29.43;;;;;;;;;;5073467;28;20796;-57
2021/11/15 03:26:31;;;;;;;55.53;30.83;;;;;;;;;;5051389;28;20431;-58
2021/11/15 03:28:57;;;;;;;52.17;29.30;;;;;;;;;;5051651;28;20443;-58
2021/11/15 03:31:27;;;;;;;58.60;32.67;;;8.50;1.00;;;;;;5052952;28;20402;-56
2021/11/15 03:33:57;;;;;;;54.53;31.80;;;8.50;1.00;;;;;;5053001;28;20413;-57
2021/11/15 03:36:23;;;;;;;56.23;31.17;;;8.60;1.00;;;;;;5053048;28;20437;-57
2021/11/15 03:38:50;;;;;;;53.40;29.77;;;8.60;1.00;;;;;;5052737;28;20849;-56
2021/11/15 03:41:17;;;;;;;49.30;28.40;;;8.20;1.00;;;;;;5052615;28;20197;-57
2021/11/15 03:43:43;;;;;;;48.53;29.00;;;;;;;;;;5052840;28;20434;-56
2021/11/15 03:46:09;;;;;;;47.40;27.50;;;8.40;1.00;;;;;;5052771;28;20976;-57
2021/11/15 03:48:34;;;;;;;52.67;30.00;;;8.50;1.00;;;;;;5052742;28;20430;-57
2021/11/15 03:51:00;;;;;;;50.47;29.50;;;8.60;1.00;;;;;;5051795;28;20435;-57
2021/11/15 03:53:32;;;;;;;50.73;29.77;;;8.40;1.00;;;;;;5052471;28;20184;-57
2021/11/15 03:55:59;;;;;;;56.90;29.90;;;8.50;1.00;;;;;;5052629;28;20441;-57
2021/11/15 03:58:24;;;;;;;51.90;30.87;;;8.60;1.00;;;;;;5051381;28;20465;-58
2021/11/15 04:00:51;;;;;;;48.60;28.73;;;8.50;1.00;;;;;;5052756;28;20762;-57
2021/11/15 04:03:28;;;;;;;49.93;28.20;;;8.60;1.00;;;;;;5052670;28;20251;-58
2021/11/15 04:06:00;;;;;;;51.00;28.20;;;8.50;1.00;;;;;;5052507;28;20800;-56
2021/11/15 04:08:25;;;;;;;46.30;27.73;;;8.50;1.00;;;;;;5052126;28;20897;-57
2021/11/15 04:10:52;;;;;;;44.70;26.97;;;8.70;1.00;;;;;;5052429;28;20435;-56
2021/11/15 04:13:25;;;;;;;44.80;27.40;;;8.50;1.00;;;;;;5050834;28;20283;-57
2021/11/15 04:15:53;;;;;;;46.43;26.60;;;8.50;1.00;;;;;;5052299;28;20505;-57
2021/11/15 04:18:22;;;;;;;44.80;26.77;;;8.50;1.00;;;;;;5052524;28;20540;-56
2021/11/15 04:20:48;;;;;;;50.10;26.60;;;;;;;;;;5052484;28;20435;-57
2021/11/15 04:23:14;;;;;;;50.43;29.73;;;8.40;1.00;;;;;;5052215;28;20466;-58
2021/11/15 04:25:39;;;;;;;52.57;27.77;;;8.10;1.00;;;;;;5051965;28;20443;-57
2021/11/15 04:28:06;;;;;;;49.37;27.50;;;8.40;1.00;;;;;;5052122;28;20203;-57
2021/11/15 04:30:32;;;;;;;49.40;28.87;;;8.10;1.00;;;;;;5051843;28;20975;-59
2021/11/15 04:33:03;;;;;;;44.17;27.27;;;8.30;1.00;;;;;;5052089;28;20537;-58
2021/11/15 04:35:29;;;;;;;54.20;28.77;;;8.10;1.00;;;;;;5051613;28;20451;-57
2021/11/15 04:37:55;;;;;;;46.80;27.50;;;;;;;;;;5050823;28;20425;-60
2021/11/15 04:40:21;;;;;;;42.67;24.23;;;7.80;1.00;;;;;;5052024;28;20430;-56
2021/11/15 04:42:47;;;;;;;46.13;27.40;;;;;;;;;;5051441;28;20826;-56
2021/11/15 04:45:13;;;;;;;45.93;26.17;;;7.90;1.00;;;;;;5051910;28;20195;-56
2021/11/15 04:47:39;;;;;;;44.47;26.53;;;;;;;;;;5051131;28;20452;-57
2021/11/15 04:50:06;;;;;;;49.10;27.97;;;8.00;1.00;;;;;;5051296;28;20459;-56
2021/11/15 04:52:34;;;;;;;42.97;25.07;;;7.90;1.00;;;;;;5050182;28;20797;-57
2021/11/15 04:55:00;;;;;;;44.73;25.97;;;;;;;;;;5051443;28;20454;-57
2021/11/15 04:57:26;;;;;;;52.33;28.30;;;;;;;;;;5051452;28;20929;-58
2021/11/15 04:59:52;;;;;;;48.93;26.87;;;8.60;1.00;;;;;;5050987;28;20501;-57
2021/11/15 05:02:18;;;;;;;47.60;28.60;;;8.20;1.00;;;;;;5051320;28;20466;-58
2021/11/15 05:04:43;;;;;;;48.40;26.77;;;;;;;;;;5051013;28;20442;-57
2021/11/15 05:07:09;;;;;;;47.27;26.47;;;;;;;;;;5051425;28;20531;-58
2021/11/15 05:09:36;;;;;;;46.03;26.43;;;9.30;1.00;;;;;;5051401;28;20435;-57
2021/11/15 05:12:03;;;;;;;45.00;27.70;;;8.20;1.00;;;;;;5050920;28;20810;-57
2021/11/15 05:14:29;;;;;;;43.77;26.33;;;8.70;1.00;;;;;;5051191;28;20446;-57
2021/11/15 05:16:54;;;;;;;48.37;27.93;;;8.20;1.00;;;;;;5050781;28;20443;-57
2021/11/15 05:19:20;;;;;;;50.17;29.10;;;8.60;1.00;;;;;;5050891;28;20426;-58
2021/11/15 05:21:46;;;;;;;45.17;26.73;;;;;;;;;;5050969;28;20201;-58
2021/11/15 05:24:12;;;;;;;48.40;26.17;;;8.30;1.00;;;;;;5051115;28;20215;-57
2021/11/15 05:26:38;;;;;;;41.80;24.80;;;7.90;1.00;;;;;;5051084;28;20443;-58
2021/11/15 05:29:04;;;;;;;43.97;25.57;;;;;;;;;;5050820;28;20191;-59
2021/11/15 05:31:33;;;;;;;49.63;26.80;;;8.40;1.00;;;;;;5050756;28;20626;-58
2021/11/15 05:34:00;;;;;;;41.83;26.60;;;;;;;;;;5050612;28;20439;-57
2021/11/15 05:36:25;;;;;;;45.10;26.57;;;8.40;1.00;;;;;;5050467;28;20824;-58
2021/11/15 05:38:51;;;;;;;45.27;27.83;;;;;;;;;;5050626;28;20414;-57
2021/11/15 05:41:17;;;;;;;51.07;26.47;;;;;;;;;;5049501;28;20691;-58
2021/11/15 05:43:43;;;;;;;44.43;25.67;;;;;;;;;;5050446;28;20496;-58
2021/11/15 05:46:08;;;;;;;46.20;28.27;;;8.30;1.00;;;;;;5050168;28;20717;-57
2021/11/15 05:48:34;;;;;;;40.50;24.67;;;7.90;1.00;;;;;;5050184;28;20431;-57
2021/11/15 05:51:00;;;;;;;45.67;27.47;;;8.20;1.00;;;;;;5050286;28;20192;-58
2021/11/15 05:53:25;;;;;;;46.93;26.27;;;8.20;1.00;;;;;;5050390;28;20666;-59
2021/11/15 05:55:52;;;;;;;41.67;26.80;;;;;;;;;;5050575;28;20181;-57
2021/11/15 05:58:17;;;;;;;45.23;26.30;;;;;;;;;;5048028;28;20184;-57
2021/11/15 06:00:44;;;;;;;44.73;26.63;;;8.20;1.00;;;;;;5050394;28;20442;-59
2021/11/15 06:03:09;;;;;;;58.90;27.33;;;8.40;1.00;;;;;;5049816;28;20532;-57
2021/11/15 06:05:36;;;;;;;44.90;26.97;;;;;;;;;;5050094;28;20474;-58
2021/11/15 06:08:02;;;;;;;51.27;28.40;;;8.00;1.00;;;;;;5050391;28;20184;-58
2021/11/15 06:10:28;;;;;;;39.00;24.80;;;;;;;;;;5049841;28;20434;-59
2021/11/15 06:12:54;;;;;;;49.53;26.07;;;8.00;1.00;;;;;;5050063;28;20770;-57
2021/11/15 06:15:21;;;;;;;43.77;26.03;;;;;;;;;;5050372;28;20423;-57
2021/11/15 06:17:47;;;;;;;46.87;27.20;;;;;;;;;;5049983;28;20188;-57
2021/11/15 06:20:14;;;;;;;45.20;27.23;;;;;;;;;;5050177;28;20780;-57
2021/11/15 06:22:40;;;;;;;49.77;27.37;;;;;;;;;;5049927;28;20550;-58
2021/11/15 06:25:07;;;;;;;48.90;27.50;;;;;;;;;;5050103;28;20431;-57
2021/11/15 06:27:34;;;;;;;44.77;26.50;;;;;;;;;;5050012;28;20546;-58
2021/11/15 06:30:00;;;;;;;47.60;27.33;;;;;;;;;;5049783;28;20472;-58
2021/11/15 06:32:25;;;;;;;49.60;28.90;;;8.10;1.00;;;;;;5049446;28;20442;-58
2021/11/15 06:34:51;;;;;;;46.50;27.80;;;;;;;;;;5048474;28;20446;-58
2021/11/15 06:37:17;;;;;;;49.60;28.90;;;;;;;;;;5049572;28;20542;-58
2021/11/15 06:39:43;;;;;;;46.30;26.57;;;;;;;;;;5048030;28;20447;-58
2021/11/15 06:42:09;;;;;;;47.83;25.63;;;;;;;;;;5049728;28;20474;-57
2021/11/15 06:44:35;;;;;;;49.33;27.87;;;;;;;;;;5049788;28;20936;-56
2021/11/15 06:47:02;;;;;;;51.17;30.17;;;;;;;;;;5049604;28;20474;-57
2021/11/15 06:49:27;;;;;;;50.10;29.30;;;7.70;1.00;;;;;;5049482;28;20475;-58
2021/11/15 06:51:54;;;;;;;53.33;29.03;;;;;;;;;;5049626;28;20439;-57
2021/11/15 06:54:20;;;;;;;50.23;28.60;;;7.70;1.00;;;;;;5049331;28;20450;-57
2021/11/15 06:56:46;;;;;;;50.77;28.43;;;7.80;1.00;;;;;;5049406;28;20413;-59
2021/11/15 06:59:12;;;;;;;48.63;28.27;;;7.80;1.00;;;;;;5049637;28;20768;-57
2021/11/15 07:01:38;;;;;;;42.37;23.33;;;;;;;;;;5050213;28;20455;-57
2021/11/15 07:04:05;;;;;;;48.27;26.97;;;;;;;;;;5058941;28;20412;-58
2021/11/15 07:06:31;;;;;;;48.57;28.03;;;;;;;;;;5072777;28;20478;-58
2021/11/15 07:08:57;;;;;;;43.70;26.20;;;;;;;;;;5072793;28;20409;-57
2021/11/15 07:11:23;;;;;;;49.27;29.07;;;7.80;1.00;;;;;;5071876;28;20450;-57
2021/11/15 07:13:48;;;;;;;42.37;25.20;;;7.90;1.00;;;;;;5072897;28;20487;-56
2021/11/15 07:16:14;;;;;;;46.53;25.47;;;;;;;;;;5072163;28;20270;-57
2021/11/15 07:18:40;;;;;;;43.10;26.43;;;;;;;;;;5072844;28;20671;-56
2021/11/15 07:21:07;;;;;;;45.80;26.80;;;;;;;;;;5073077;28;20438;-57
2021/11/15 07:23:32;;;;;;;45.07;26.20;;;8.10;1.00;;;;;;5072831;28;20516;-57
2021/11/15 07:25:58;;;;;;;43.00;25.10;;;;;;;;;;5072804;28;20784;-58
2021/11/15 07:28:25;;;;;;;44.87;25.80;;;;;;;;;;5073107;28;20180;-57
2021/11/15 07:30:54;;;;;;;42.13;25.87;;;;;;;;;;5071103;28;20413;-57
2021/11/15 07:33:22;;;;;;;38.37;24.43;;;7.90;1.00;;;;;;5052849;28;20428;-57
2021/11/15 07:35:49;;;;;;;42.60;23.03;;;8.10;1.00;;;;;;5052611;28;20413;-57
2021/11/15 07:38:15;;;;;;;42.70;25.13;;;8.20;1.00;;;;;;5052676;28;20798;-57
2021/11/15 07:40:40;;;;;;;40.77;24.90;;;7.70;1.00;;;;;;5052346;28;20414;-58
2021/11/15 07:43:06;;;;;;;38.20;23.17;;;;;;;;;;5052209;28;20887;-57
2021/11/15 07:45:32;;;;;;;37.53;25.30;;;8.00;1.00;;;;;;5052462;28;20673;-57
2021/11/15 07:47:58;;;;;;;44.47;24.97;;;;;;;;;;5052070;28;20921;-58
2021/11/15 07:50:24;;;;;;;41.77;24.77;;;8.10;1.00;;;;;;5052276;28;20180;-57
2021/11/15 07:52:49;;;;;;;42.40;23.73;;;;;;;;;;5052145;28;20518;-57
2021/11/15 07:55:16;;;;;;;38.77;23.10;;;;;;;;;;5052359;28;20220;-59
2021/11/15 07:57:43;;;;;;;42.00;27.07;;;;;;;;;;5052004;28;20474;-56
2021/11/15 08:00:12;;;;;;;43.37;25.53;;;8.00;1.00;;;;;;5052100;28;20439;-57
2021/11/15 08:02:39;;;;;;;38.43;23.53;;;8.20;1.00;;;;;;5052325;28;21085;-57
2021/11/15 08:05:05;;;;;;;37.83;23.20;;;8.10;1.00;;;;;;5052221;28;20435;-57
2021/11/15 08:07:31;;;;;;;42.90;23.87;;;;;;;;;;5052214;28;20450;-58
2021/11/15 08:09:57;;;;;;;39.40;24.20;;;;;;;;;;5052397;28;20812;-57
2021/11/15 08:12:36;;;;;;;43.70;24.47;;;8.00;1.00;;;;;;5051446;28;20483;-58
2021/11/15 08:15:06;;;;;;;36.73;20.70;;;8.20;1.00;;;;;;5051966;28;20454;-58
2021/11/15 08:17:32;;;;;;;35.37;22.83;;;;;;;;;;5052159;28;20447;-57
2021/11/15 08:19:58;;;;;;;45.07;23.97;;;;;;;;;;5052220;28;20442;-58
2021/11/15 08:22:24;;;;;;;39.27;22.70;;;8.30;1.00;;;;;;5051723;28;20812;-58
2021/11/15 08:24:53;;;;;;;36.23;21.87;;;8.10;1.00;;;;;;5051336;28;20439;-58
2021/11/15 08:27:19;;;;;;;37.13;22.30;;;8.10;1.00;;;;;;5051717;28;20185;-58
2021/11/15 08:29:45;;;;;;;42.83;23.93;;;;;;;;;;5051728;28;20430;-56
2021/11/15 08:32:12;;;;;;;44.07;23.90;;;;;;;;;;5051457;28;20438;-58
2021/11/15 08:34:38;;;;;;;43.70;23.97;;;8.00;1.00;;;;;;5051830;28;20431;-58
2021/11/15 08:37:05;;;;;;;38.57;23.77;;;8.00;1.00;;;;;;5051456;28;21026;-57
2021/11/15 08:39:32;;;;;;;36.60;21.83;;;;;;;;;;5051326;28;20439;-58
2021/11/15 08:42:03;;;;;;;36.70;22.27;;;8.10;1.00;;;;;;5051276;28;20558;-56
2021/11/15 08:44:30;;;;;;;36.77;22.63;;;8.40;1.00;;;;;;5051490;28;20438;-57
2021/11/15 08:46:57;;;;;;;36.73;21.17;;;8.00;1.00;;;;;;5051278;28;20817;-57
2021/11/15 08:49:26;;;;;;;35.67;21.73;;;8.40;1.00;;;;;;5051431;28;20438;-57
2021/11/15 08:51:53;;;;;;;39.60;22.40;;;8.30;1.00;;;;;;5051150;28;20444;-57
2021/11/15 08:54:20;;;;;;;40.33;23.77;;;8.20;1.00;;;;;;5051248;28;20916;-58
2021/11/15 08:56:58;;;;;;;38.43;24.17;;;8.20;1.00;;;;;;5051341;28;20488;-57
2021/11/15 08:59:24;;;;;;;39.90;22.80;;;8.30;1.00;;;;;;5051548;28;20523;-58
2021/11/15 09:01:50;;;;;;;43.40;25.20;;;8.20;1.00;;;;;;5049882;28;20537;-58
2021/11/15 09:04:16;;;;;;;36.40;22.20;;;;;;;;;;5051183;28;20250;-58
2021/11/15 09:06:42;;;;;;;41.43;23.27;;;;;;;;;;5050734;28;20947;-58
2021/11/15 09:09:14;;;;;;;39.43;24.93;;;8.10;1.00;;;;;;5051130;28;20405;-57
2021/11/15 09:11:51;;;;;;;36.40;22.27;;;8.10;1.00;;;;;;5049696;28;20432;-58
2021/11/15 09:14:19;;;;;;;35.83;23.23;;;8.00;1.00;;;;;;5051170;28;20431;-57
2021/11/15 09:16:46;;;;;;;40.40;23.20;;;8.40;1.00;;;;;;5050831;28;20496;-58
2021/11/15 09:19:12;;;;;;;40.33;23.93;;;;;;;;;;5050531;28;20438;-57
2021/11/15 09:21:39;;;;;;;38.23;22.00;;;8.10;1.00;;;;;;5050751;28;20458;-58
2021/11/15 09:24:05;;;;;;;37.40;24.20;;;8.10;1.00;;;;;;5049216;28;20439;-58
2021/11/15 09:26:30;;;;;;;41.20;23.77;;;8.20;1.00;;;;;;5070539;28;20450;-57
2021/11/15 09:28:57;;;;;;;44.60;24.97;;;;;;;;;;5070944;28;20784;-57
2021/11/15 09:31:23;;;;;;;42.07;22.60;;;;;;;;;;5070833;28;20275;-58
2021/11/15 09:33:50;;;;;;;43.70;22.73;;;;;;;;;;5070806;28;20495;-58
2021/11/15 09:36:16;;;;;;;37.40;23.93;;;8.70;1.00;;;;;;5071044;28;20437;-58
2021/11/15 09:38:44;;;;;;;39.53;23.40;;;;;;;;;;5070547;28;20415;-58
2021/11/15 09:41:11;;;;;;;43.03;26.03;;;;;;;;;;5070749;28;20579;-57
2021/11/15 09:43:37;;;;;;;42.37;23.53;;;8.50;1.00;;;;;;5050441;28;20509;-58
2021/11/15 09:46:12;;;;;;;36.33;22.07;;;8.60;1.00;;;;;;5050302;28;20459;-57
2021/11/15 09:48:42;;;;;;;41.73;23.93;;;8.70;1.00;;;;;;5050596;28;20926;-58
2021/11/15 09:51:08;;;;;;;36.70;22.47;;;8.40;1.00;;;;;;5050757;28;20439;-59
2021/11/15 09:53:34;;;;;;;35.13;22.30;;;;;;;;;;5050331;28;20456;-58
2021/11/15 09:56:00;;;;;;;40.20;24.10;;;8.60;1.00;;;;;;5050554;28;20447;-59
2021/11/15 09:58:26;;;;;;;37.60;22.87;;;;;;;;;;5050603;28;20445;-57
2021/11/15 10:00:52;;;;;;;38.97;22.97;;;8.40;1.00;;;;;;5070313;28;20437;-59
2021/11/15 10:03:19;;;;;;;42.13;23.37;;;8.90;1.00;;;;;;5063071;28;20462;-57
2021/11/15 10:05:49;;;;;;;34.87;22.17;;;8.80;1.00;;;;;;5052823;28;20920;-59
2021/11/15 10:08:15;;;;;;;40.67;22.40;;;8.90;1.00;;;;;;5055679;28;20810;-59
2021/11/15 10:10:46;;;;;;;34.30;23.43;;;8.90;1.00;;;;;;5060161;28;20415;-58
2021/11/15 10:13:12;;;;;;;40.10;22.87;;;;;;;;;;5070506;28;20405;-58
2021/11/15 10:15:59;;;;;;;35.13;23.23;;;8.90;1.00;;;;;;5070198;28;20587;-58
2021/11/15 10:18:34;;;;;;;40.97;23.77;;;8.90;1.00;;;;;;5062638;28;20448;-58
2021/11/15 10:21:28;;;;;;;36.90;24.80;;;9.00;1.00;;;;;;5050018;28;20439;-57
2021/11/15 10:24:09;;;;;;;39.63;24.00;;;9.00;1.00;;;;;;5044658;28;20873;-58
2021/11/15 10:26:38;;;;;;;34.13;21.30;;;;;;;;;;5061519;28;20434;-59
2021/11/15 10:29:21;;;;;;;42.77;23.73;;;9.10;1.00;;;;;;5062647;28;20424;-57
2021/11/15 10:31:51;;;;;;;35.53;21.33;;;9.40;1.00;;;;;;5051236;28;20928;-59
2021/11/15 10:34:29;;;;;;;34.90;20.93;;;;;;;;;;5055863;28;20523;-59
2021/11/15 10:37:12;;;;;;;28.67;20.93;;;9.30;1.00;;;;;;5070431;28;20438;-57
2021/11/15 10:39:39;;;;;;;31.03;20.40;;;;;;;;;;5073973;28;20443;-59
2021/11/15 10:42:06;;;;;;;30.33;19.73;;;9.40;1.00;;;;;;5073769;28;20497;-58
2021/11/15 10:44:32;;;;;;;34.90;22.57;;;;;;;;;;5074109;28;20952;-59
2021/11/15 10:46:59;;;;;;;29.07;19.93;;;9.50;1.00;;;;;;5073723;28;20830;-58
2021/11/15 10:49:26;;;;;;;34.87;20.70;;;9.50;1.00;;;;;;5073975;28;20955;-58
2021/11/15 10:52:00;;;;;;;28.20;19.07;;;9.80;1.00;;;;;;5073544;28;20448;-58
2021/11/15 10:54:40;;;;;;;32.43;19.80;;;9.60;1.00;;;;;;5073825;28;20472;-58
2021/11/15 10:57:28;;;;;;;34.60;21.80;;;9.80;1.00;;;;;;5073467;28;20420;-59
2021/11/15 11:00:10;;;;;;;28.80;20.40;;;9.70;1.00;;;;;;5073608;28;20413;-58
2021/11/15 11:02:45;;;;;;;30.30;19.93;;;10.30;1.00;;;;;;5073363;28;20466;-59
2021/11/15 11:05:11;;;;;;;33.43;20.10;;;;;;;;;;5073444;28;20487;-57
2021/11/15 11:07:39;;;;;;;32.57;20.10;;;9.80;1.00;;;;;;5073493;28;20438;-59
2021/11/15 11:10:09;;;;;;;29.77;19.80;;;9.80;1.00;;;;;;5073210;28;20430;-58
2021/11/15 11:12:40;;;;;;;27.87;18.30;;;9.80;1.00;;;;;;5073327;28;20524;-57
2021/11/15 11:15:31;;;;;;;30.30;20.73;;;9.80;1.00;;;;;;5073414;28;20438;-57
2021/11/15 11:17:57;;;;;;;29.73;18.90;;;;;;;;;;5072885;28;20841;-59
2021/11/15 11:21:00;;;;;;;28.43;18.17;;;9.90;1.00;;;;;;5073148;28;20499;-59
2021/11/15 11:23:48;;;;;;;29.70;19.63;;;;;;;;;;5072741;28;20548;-58
2021/11/15 11:26:13;;;;;;;27.77;17.60;;;9.70;1.00;;;;;;5070708;28;20761;-59
2021/11/15 11:28:42;;;;;;;28.77;17.37;;;9.90;1.00;;;;;;5069434;28;20812;-58
2021/11/15 11:31:10;;;;;;;27.13;19.00;;;10.00;1.00;;;;;;5072709;28;20458;-59
2021/11/15 11:33:36;;;;;;;28.60;17.73;;;;;;;;;;5073079;28;20846;-58
2021/11/15 11:36:03;;;;;;;28.40;19.27;;;;;;;;;;5072754;28;20520;-61
2021/11/15 11:38:30;;;;;;;32.23;19.43;;;;;;;;;;5072905;28;20833;-59
2021/11/15 11:40:56;;;;;;;27.40;17.50;;;;;;;;;;5072654;28;20499;-57
2021/11/15 11:43:23;;;;;;;30.00;17.40;;;9.90;1.00;;;;;;5072488;28;20470;-59
2021/11/15 11:45:48;;;;;;;28.60;19.87;;;10.00;1.00;;;;;;5072636;28;20465;-57
2021/11/15 11:48:15;;;;;;;26.17;18.60;;;;;;;;;;5071918;28;20413;-58
2021/11/15 11:50:49;;;;;;;26.67;18.50;;;10.00;1.00;;;;;;5072604;28;20192;-58
2021/11/15 11:53:23;;;;;;;26.60;17.13;;;9.90;1.00;;;;;;5072227;28;20474;-60
2021/11/15 11:55:50;;;;;;;30.87;19.10;;;;;;;;;;5072519;28;20441;-58
2021/11/15 11:58:31;;;;;;;23.80;17.30;;;9.90;1.00;;;;;;5072351;28;20500;-58
2021/11/15 12:01:05;;;;;;;25.57;17.87;;;9.90;1.00;;;;;;5072368;28;20457;-57
2021/11/15 12:03:32;;;;;;;26.43;17.70;;;10.20;1.00;;;;;;5072255;28;21016;-57
2021/11/15 12:05:58;;;;;;;25.77;18.10;;;9.40;1.00;;;;;;5070706;28;20462;-58
2021/11/15 12:08:52;;;;;;;29.37;19.30;;;;;;;;;;5071934;28;20417;-58
2021/11/15 12:11:31;;;;;;;26.17;18.80;;;10.00;1.00;;;;;;5070997;28;20450;-59
2021/11/15 12:13:57;;;;;;;29.90;19.10;;;10.10;1.00;;;;;;5056215;28;20944;-59
2021/11/15 12:16:55;;;;;;;22.77;17.23;;;10.10;1.00;;;;;;5050289;28;20471;-58
2021/11/15 12:19:28;;;;;;;24.13;16.70;;;10.10;1.00;;;;;;5051856;28;20447;-57
2021/11/15 12:22:15;;;;;;;28.93;17.83;;;10.00;1.00;;;;;;5052346;28;20800;-57
2021/11/15 12:25:18;;;;;;;24.83;17.30;;;10.00;1.00;;;;;;5050453;28;20812;-58
2021/11/15 12:27:47;;;;;;;24.20;17.67;;;9.90;1.00;;;;;;5052007;28;20435;-58
2021/11/15 12:30:22;;;;;;;23.40;18.03;;;10.00;1.00;;;;;;5059978;28;20428;-58
2021/11/15 12:33:17;;;;;;;29.17;19.23;;;10.00;1.00;;;;;;5065484;28;20439;-59
2021/11/15 12:36:10;;;;;;;27.30;16.73;;;10.00;1.00;;;;;;5071447;28;20434;-58
2021/11/15 12:38:38;;;;;;;27.73;19.40;;;9.70;1.00;;;;;;5071807;28;20431;-58
2021/11/15 12:41:24;;;;;;;23.23;17.60;;;9.90;1.00;;;;;;5071377;28;20416;-59
2021/11/15 12:43:50;;;;;;;25.73;17.70;;;;;;;;;;5071388;28;20548;-59
2021/11/15 12:46:18;;;;;;;26.30;17.27;;;10.00;1.00;;;;;;5071263;28;20549;-59
2021/11/15 12:48:48;;;;;;;26.83;18.10;;;10.00;1.00;;;;;;5071265;28;20438;-58
2021/11/15 12:51:23;;;;;;;25.90;17.37;;;9.80;1.00;;;;;;5071189;28;20419;-58
2021/11/15 12:53:53;;;;;;;26.57;16.50;;;9.80;1.00;;;;;;5045944;28;20429;-58
2021/11/15 12:56:25;;;;;;;23.47;15.90;;;9.70;1.00;;;;;;5051087;28;20540;-57
2021/11/15 12:58:53;;;;;;;25.33;16.80;;;9.60;1.00;;;;;;5050029;28;20417;-57
2021/11/15 13:01:23;;;;;;;32.90;20.03;;;9.80;1.00;;;;;;5051007;28;20496;-58
2021/11/15 13:03:51;;;;;;;30.40;18.30;;;9.70;1.00;;;;;;5050033;28;20484;-58
2021/11/15 13:06:17;;;;;;;28.60;18.30;;;;;;;;;;5050988;28;20439;-59
2021/11/15 13:08:47;;;;;;;24.00;16.53;;;9.90;1.00;;;;;;5051141;28;20951;-58
2021/11/15 13:11:13;;;;;;;25.97;18.13;;;;;;;;;;5051128;28;20454;-59
2021/11/15 13:13:40;;;;;;;34.03;19.93;;;;;;;;;;5051181;28;20468;-58
2021/11/15 13:16:07;;;;;;;27.30;17.97;;;;;;;;;;5051511;28;20915;-59
2021/11/15 13:18:32;;;;;;;27.27;19.13;;;9.90;1.00;;;;;;5050718;28;20880;-58
2021/11/15 13:20:58;;;;;;;27.40;18.17;;;9.80;1.00;;;;;;5050430;28;20495;-59
2021/11/15 13:23:26;;;;;;;28.50;18.00;;;10.00;1.00;;;;;;5050473;28;20254;-63
2021/11/15 13:25:51;;;;;;;25.43;17.37;;;9.80;1.00;;;;;;5050566;28;20176;-58
2021/11/15 13:28:18;;;;;;;28.67;18.13;;;;;;;;;;5050741;28;20421;-58